Time;durP1;ratioP1;P1;durP2;ratioP2;P2;SDS_P1;SDS_P2;PMS_P1;PMS_P2;Temp;Humidity;BMP_temperature;BMP_pressure;BME280_temperature;BME280_humidity;BME280_pressure;Samples;Min_cycle;Max_cycle;Signal;HPM_P1;HPM_P2
2023/04/26 00:02:27;;;;;;;3.40;2.28;;;5.70;87.70;;;;;;5072353;28;20422;-71
2023/04/26 00:04:54;;;;;;;4.50;2.30;;;5.70;88.30;;;;;;5070152;28;20767;-71
2023/04/26 00:07:23;;;;;;;5.65;2.50;;;5.70;87.40;;;;;;5069837;28;20435;-69
2023/04/26 00:09:50;;;;;;;5.43;2.88;;;5.60;87.50;;;;;;5070012;28;20427;-69
2023/04/26 00:12:17;;;;;;;6.35;3.00;;;5.60;88.50;;;;;;5073018;28;20418;-71
2023/04/26 00:14:44;;;;;;;5.75;3.17;;;5.60;89.00;;;;;;5074052;28;20779;-70
2023/04/26 00:17:10;;;;;;;7.68;2.70;;;5.60;89.50;;;;;;5081614;28;20415;-69
2023/04/26 00:19:37;;;;;;;4.20;3.00;;;5.50;89.90;;;;;;5080837;28;20414;-70
2023/04/26 00:22:05;;;;;;;4.72;2.80;;;5.50;89.00;;;;;;5071603;28;20550;-69
2023/04/26 00:24:33;;;;;;;4.72;2.63;;;5.40;89.00;;;;;;5080457;28;20425;-70
2023/04/26 00:27:00;;;;;;;5.05;3.20;;;5.40;89.60;;;;;;5070149;28;20786;-69
2023/04/26 00:29:27;;;;;;;5.88;2.75;;;5.40;90.20;;;;;;5068531;28;20571;-71
2023/04/26 00:31:54;;;;;;;6.28;3.75;;;5.30;89.70;;;;;;5069904;28;20890;-70
2023/04/26 00:34:20;;;;;;;6.47;2.88;;;5.30;90.20;;;;;;5069143;28;20416;-69
2023/04/26 00:36:47;;;;;;;5.80;3.15;;;5.20;90.50;;;;;;5082698;28;20510;-69
2023/04/26 00:39:15;;;;;;;4.40;2.70;;;5.20;90.70;;;;;;5081457;28;20420;-69
2023/04/26 00:41:43;;;;;;;5.78;3.47;;;5.20;91.00;;;;;;5072700;28;20434;-69
2023/04/26 00:44:09;;;;;;;5.93;3.08;;;5.20;90.90;;;;;;5064296;28;20808;-71
2023/04/26 00:46:36;;;;;;;6.90;3.35;;;5.30;91.10;;;;;;5074736;28;20414;-71
2023/04/26 00:49:03;;;;;;;5.10;2.75;;;5.30;91.00;;;;;;5075803;28;20794;-69
2023/04/26 00:51:30;;;;;;;3.20;2.90;;;5.20;91.40;;;;;;5075457;28;20421;-69
2023/04/26 00:53:57;;;;;;;5.68;3.17;;;5.20;90.80;;;;;;5074460;28;20427;-70
2023/04/26 00:56:25;;;;;;;5.75;3.58;;;5.10;91.10;;;;;;5063813;28;20435;-71
2023/04/26 00:58:53;;;;;;;5.32;3.13;;;5.10;91.60;;;;;;5068292;28;20530;-71
2023/04/26 01:01:20;;;;;;;4.10;3.10;;;5.10;91.60;;;;;;5068863;28;20416;-69
2023/04/26 01:03:47;;;;;;;5.15;3.47;;;5.00;91.60;;;;;;5068398;28;20449;-71
2023/04/26 01:06:14;;;;;;;4.68;3.40;;;5.00;91.90;;;;;;5068780;28;20419;-69
2023/04/26 01:08:41;;;;;;;5.20;3.35;;;5.00;92.20;;;;;;5065826;28;20431;-70
2023/04/26 01:11:08;;;;;;;5.57;3.70;;;5.00;91.90;;;;;;5067106;28;20455;-70
2023/04/26 01:13:36;;;;;;;7.82;3.90;;;4.90;92.10;;;;;;5066754;28;20529;-69
2023/04/26 01:16:07;;;;;;;5.70;3.40;;;5.00;92.50;;;;;;5067967;28;21510;-72
2023/04/26 01:18:34;;;;;;;5.47;3.35;;;5.00;92.70;;;;;;5073290;28;20411;-72
2023/04/26 01:21:03;;;;;;;5.90;3.50;;;5.00;92.50;;;;;;5068519;28;20890;-71
2023/04/26 01:23:31;;;;;;;4.40;3.30;;;5.10;92.10;;;;;;5069929;28;20419;-71
2023/04/26 01:25:58;;;;;;;5.45;3.35;;;5.10;92.20;;;;;;5068530;28;20422;-71
2023/04/26 01:28:25;;;;;;;4.57;3.25;;;5.10;91.80;;;;;;5080280;28;20436;-71
2023/04/26 01:30:52;;;;;;;4.05;3.22;;;5.10;92.10;;;;;;5069269;28;20423;-71
2023/04/26 01:33:19;;;;;;;7.82;3.75;;;5.10;92.00;;;;;;5071367;28;20668;-69
2023/04/26 01:35:46;;;;;;;6.35;4.10;;;5.10;92.10;;;;;;5077143;28;20431;-69
2023/04/26 01:38:13;;;;;;;7.63;4.20;;;5.10;92.30;;;;;;5058918;28;20434;-69
2023/04/26 01:40:44;;;;;;;4.68;3.60;;;5.10;92.30;;;;;;5066141;28;20411;-69
2023/04/26 01:43:11;;;;;;;6.15;3.90;;;5.00;92.40;;;;;;5067271;28;20423;-70
2023/04/26 01:45:38;;;;;;;6.55;3.88;;;5.00;92.70;;;;;;5067493;28;20408;-69
2023/04/26 01:48:05;;;;;;;6.10;4.13;;;5.00;92.80;;;;;;5068140;28;20411;-70
2023/04/26 01:50:32;;;;;;;5.05;3.72;;;4.90;92.80;;;;;;5077305;28;20958;-70
2023/04/26 01:52:59;;;;;;;6.47;4.20;;;4.90;92.90;;;;;;5067770;28;20411;-69
2023/04/26 01:55:25;;;;;;;6.25;4.38;;;4.90;93.50;;;;;;5067975;28;20780;-70
2023/04/26 01:57:53;;;;;;;9.40;4.60;;;4.90;93.30;;;;;;5067881;28;20415;-70
2023/04/26 02:00:20;;;;;;;7.13;4.40;;;4.90;93.50;;;;;;5067466;28;20434;-70
2023/04/26 02:02:47;;;;;;;7.45;4.47;;;4.80;93.40;;;;;;5071283;28;20432;-70
2023/04/26 02:05:14;;;;;;;7.70;4.35;;;4.80;93.70;;;;;;5071842;28;20422;-70
2023/04/26 02:07:41;;;;;;;6.40;4.22;;;4.80;94.00;;;;;;5069989;28;20502;-70
2023/04/26 02:10:09;;;;;;;7.95;4.57;;;4.80;93.90;;;;;;5070657;28;20435;-69
2023/04/26 02:12:36;;;;;;;7.88;4.40;;;4.70;93.90;;;;;;5071219;28;20407;-70
2023/04/26 02:15:05;;;;;;;5.82;4.47;;;4.70;93.90;;;;;;5072752;28;20427;-70
2023/04/26 02:17:31;;;;;;;6.07;4.70;;;4.70;94.10;;;;;;5072766;28;20411;-70
2023/04/26 02:19:58;;;;;;;5.95;4.70;;;4.60;94.40;;;;;;5071484;28;20424;-69
2023/04/26 02:22:25;;;;;;;6.00;4.60;;;4.60;94.60;;;;;;5065422;28;20429;-70
2023/04/26 02:24:52;;;;;;;6.80;4.43;;;4.60;94.90;;;;;;5069229;28;20418;-70
2023/04/26 02:27:19;;;;;;;9.27;5.05;;;4.60;94.70;;;;;;5084463;28;20504;-69
2023/04/26 02:29:46;;;;;;;7.30;4.97;;;4.50;94.50;;;;;;5071349;28;20458;-69
2023/04/26 02:32:14;;;;;;;6.95;4.95;;;4.50;94.70;;;;;;5066715;28;20430;-70
2023/04/26 02:34:41;;;;;;;6.65;4.88;;;4.50;95.20;;;;;;5071550;28;20798;-70
2023/04/26 02:37:08;;;;;;;7.13;4.78;;;4.50;95.40;;;;;;5071578;28;20427;-70
2023/04/26 02:39:35;;;;;;;8.15;5.07;;;4.40;95.40;;;;;;5071526;28;20528;-69
2023/04/26 02:42:01;;;;;;;6.43;5.57;;;4.40;95.40;;;;;;5073006;28;20412;-70
2023/04/26 02:44:30;;;;;;;6.85;5.55;;;4.40;95.20;;;;;;5071052;28;20789;-69
2023/04/26 02:46:57;;;;;;;6.88;5.72;;;4.40;95.50;;;;;;5080791;28;20442;-69
2023/04/26 02:49:25;;;;;;;9.70;5.20;;;4.40;95.70;;;;;;5072668;28;20424;-69
2023/04/26 02:51:52;;;;;;;7.90;5.63;;;4.40;95.70;;;;;;5071445;28;20929;-70
2023/04/26 02:54:19;;;;;;;7.25;5.60;;;4.40;96.00;;;;;;5070801;28;20407;-71
2023/04/26 02:56:45;;;;;;;7.95;5.50;;;4.40;96.10;;;;;;5071399;28;20419;-71
2023/04/26 02:59:12;;;;;;;6.40;5.07;;;4.30;95.80;;;;;;5080981;28;20412;-71
2023/04/26 03:01:39;;;;;;;8.98;5.80;;;4.40;96.10;;;;;;5069947;28;20936;-70
2023/04/26 03:04:05;;;;;;;5.50;4.90;;;4.30;95.80;;;;;;5084107;28;20415;-71
2023/04/26 03:06:34;;;;;;;7.63;6.00;;;4.30;96.00;;;;;;5081614;28;20776;-70
2023/04/26 03:09:00;;;;;;;8.82;5.85;;;4.30;96.10;;;;;;5086992;28;20420;-71
2023/04/26 03:11:27;;;;;;;8.17;5.50;;;4.30;96.10;;;;;;5073368;28;20432;-71
2023/04/26 03:13:54;;;;;;;9.77;6.18;;;4.30;96.40;;;;;;5068568;28;20415;-70
2023/04/26 03:16:21;;;;;;;7.22;5.07;;;4.20;96.60;;;;;;5068272;28;20915;-70
2023/04/26 03:18:48;;;;;;;6.90;6.20;;;4.30;96.60;;;;;;5065881;28;20419;-69
2023/04/26 03:21:15;;;;;;;9.57;6.03;;;4.20;96.50;;;;;;5082005;28;20413;-69
2023/04/26 03:23:43;;;;;;;6.90;5.70;;;4.20;96.70;;;;;;5090523;28;20425;-69
2023/04/26 03:26:10;;;;;;;10.05;6.20;;;4.20;96.80;;;;;;5073716;28;20439;-69
2023/04/26 03:28:36;;;;;;;7.45;6.03;;;4.20;96.70;;;;;;5075689;28;20409;-69
2023/04/26 03:31:03;;;;;;;8.25;6.40;;;4.20;96.70;;;;;;5073260;28;20424;-69
2023/04/26 03:33:30;;;;;;;7.72;6.13;;;4.10;96.60;;;;;;5070102;28;20426;-69
2023/04/26 03:35:57;;;;;;;8.32;6.85;;;4.10;96.90;;;;;;5070447;28;20412;-69
2023/04/26 03:38:24;;;;;;;8.52;6.50;;;4.00;96.80;;;;;;5082654;28;20427;-68
2023/04/26 03:40:52;;;;;;;8.00;6.32;;;4.00;96.90;;;;;;5070092;28;20408;-69
2023/04/26 03:43:18;;;;;;;8.70;7.28;;;3.90;97.20;;;;;;5075431;28;20421;-68
2023/04/26 03:45:47;;;;;;;7.05;6.35;;;3.90;97.20;;;;;;5076082;28;20435;-70
2023/04/26 03:48:14;;;;;;;8.10;6.60;;;3.90;97.20;;;;;;5077361;28;20414;-69
2023/04/26 03:50:43;;;;;;;9.77;7.30;;;3.80;97.10;;;;;;5090068;28;20769;-71
2023/04/26 03:53:10;;;;;;;11.02;6.97;;;3.80;97.20;;;;;;5072777;28;20428;-68
2023/04/26 03:55:37;;;;;;;7.43;6.65;;;3.80;97.60;;;;;;5070200;28;20412;-70
2023/04/26 03:58:06;;;;;;;9.77;6.68;;;3.70;97.50;;;;;;5077381;28;20418;-70
2023/04/26 04:00:33;;;;;;;7.93;6.63;;;3.70;97.60;;;;;;5074156;28;20442;-69
2023/04/26 04:03:00;;;;;;;9.17;7.00;;;3.70;97.70;;;;;;5067106;28;20860;-72
2023/04/26 04:05:27;;;;;;;11.18;6.88;;;3.80;98.00;;;;;;5070710;28;20435;-69
2023/04/26 04:07:55;;;;;;;11.15;7.30;;;3.80;97.90;;;;;;5081690;28;20438;-71
2023/04/26 04:10:22;;;;;;;9.65;7.00;;;3.70;97.70;;;;;;5064150;28;20433;-71
2023/04/26 04:12:49;;;;;;;9.30;6.85;;;3.80;97.90;;;;;;5069044;28;20854;-71
2023/04/26 04:15:18;;;;;;;9.27;7.47;;;3.80;97.90;;;;;;5068665;28;20451;-70
2023/04/26 04:17:45;;;;;;;12.07;7.15;;;3.80;98.00;;;;;;5075642;28;20418;-72
2023/04/26 04:20:12;;;;;;;9.55;6.95;;;3.80;97.90;;;;;;5066104;28;20774;-71
2023/04/26 04:22:39;;;;;;;9.90;7.00;;;3.80;97.80;;;;;;5074960;28;20473;-69
2023/04/26 04:25:08;;;;;;;9.93;6.90;;;3.80;97.80;;;;;;5068822;28;20941;-70
2023/04/26 04:27:35;;;;;;;9.60;7.20;;;3.80;98.00;;;;;;5069440;28;20420;-71
2023/04/26 04:30:03;;;;;;;8.00;7.07;;;3.80;97.90;;;;;;5069147;28;20468;-70
2023/04/26 04:32:32;;;;;;;12.75;7.10;;;3.80;97.90;;;;;;5067668;28;20451;-70
2023/04/26 04:34:59;;;;;;;8.35;5.95;;;3.70;97.70;;;;;;5082662;28;20813;-69
2023/04/26 04:37:27;;;;;;;9.65;6.80;;;3.70;97.70;;;;;;5068001;28;20435;-68
2023/04/26 04:39:54;;;;;;;8.75;6.90;;;3.70;98.00;;;;;;5068978;28;20427;-69
2023/04/26 04:42:21;;;;;;;10.75;6.35;;;3.70;98.30;;;;;;5068777;28;20755;-69
2023/04/26 04:44:48;;;;;;;9.75;6.53;;;3.70;98.70;;;;;;5072612;28;20436;-73
2023/04/26 04:47:16;;;;;;;9.88;6.80;;;3.70;98.90;;;;;;5067821;28;20431;-69
2023/04/26 04:49:44;;;;;;;9.90;6.70;;;3.70;98.90;;;;;;5068919;28;20531;-69
2023/04/26 04:52:11;;;;;;;9.30;7.00;;;3.70;98.60;;;;;;5066056;28;20435;-70
2023/04/26 04:54:38;;;;;;;8.85;6.78;;;3.70;98.90;;;;;;5059540;28;20427;-65
2023/04/26 04:57:05;;;;;;;10.48;6.85;;;3.80;98.90;;;;;;5061064;28;20432;-65
2023/04/26 04:59:32;;;;;;;9.65;6.45;;;3.80;99.10;;;;;;5067533;28;20557;-63
2023/04/26 05:01:59;;;;;;;8.90;6.50;;;3.90;99.10;;;;;;5068985;28;20929;-69
2023/04/26 05:04:25;;;;;;;8.65;6.28;;;4.00;99.00;;;;;;5071330;28;20427;-69
2023/04/26 05:06:53;;;;;;;10.15;7.32;;;4.00;98.70;;;;;;5067278;28;20434;-70
2023/04/26 05:09:21;;;;;;;9.07;7.10;;;4.00;98.40;;;;;;5079136;28;20437;-69
2023/04/26 05:11:47;;;;;;;9.25;7.43;;;4.10;98.40;;;;;;5072690;28;20480;-69
2023/04/26 05:14:14;;;;;;;10.15;7.43;;;4.10;98.40;;;;;;5088507;28;20410;-69
2023/04/26 05:16:41;;;;;;;9.13;7.15;;;4.20;98.30;;;;;;5081465;28;20433;-69
2023/04/26 05:19:08;;;;;;;8.25;7.10;;;4.30;98.10;;;;;;5066276;28;20465;-69
2023/04/26 05:21:34;;;;;;;10.30;7.70;;;4.30;97.90;;;;;;5067337;28;20428;-70
2023/04/26 05:24:03;;;;;;;8.35;7.20;;;4.30;97.60;;;;;;5067907;28;20435;-69
2023/04/26 05:26:29;;;;;;;9.52;7.30;;;4.40;97.90;;;;;;5066035;28;20460;-69
2023/04/26 05:28:56;;;;;;;11.20;7.30;;;4.40;97.80;;;;;;5072588;28;20496;-69
2023/04/26 05:31:23;;;;;;;9.90;7.20;;;4.40;97.80;;;;;;5065125;28;20583;-68
2023/04/26 05:33:50;;;;;;;10.82;7.10;;;4.50;97.90;;;;;;5069019;28;20795;-69
2023/04/26 05:36:17;;;;;;;9.60;7.40;;;4.50;98.00;;;;;;5059147;28;20427;-68
2023/04/26 05:38:43;;;;;;;12.80;7.30;;;4.60;98.00;;;;;;5065627;28;20977;-69
2023/04/26 05:41:11;;;;;;;9.70;8.20;;;4.60;97.70;;;;;;5066720;28;20439;-69
2023/04/26 05:43:39;;;;;;;9.00;7.50;;;4.60;97.40;;;;;;5065500;28;20434;-71
2023/04/26 05:46:06;;;;;;;7.90;6.93;;;4.70;97.10;;;;;;5066212;28;20454;-71
2023/04/26 05:48:32;;;;;;;13.18;8.10;;;4.70;97.70;;;;;;5054088;28;20445;-71
2023/04/26 05:50:59;;;;;;;10.27;7.60;;;4.70;97.30;;;;;;5064802;28;20814;-70
2023/04/26 05:53:26;;;;;;;8.82;7.00;;;4.70;96.50;;;;;;5066801;28;20423;-71
2023/04/26 05:55:53;;;;;;;10.45;7.00;;;4.80;95.70;;;;;;5066514;28;20910;-70
2023/04/26 05:58:21;;;;;;;8.00;6.97;;;4.80;95.40;;;;;;5067967;28;20422;-71
2023/04/26 06:00:47;;;;;;;8.25;7.07;;;4.80;95.40;;;;;;5066083;28;20929;-71
2023/04/26 06:03:14;;;;;;;10.35;7.22;;;4.80;95.40;;;;;;5065099;28;20922;-68
2023/04/26 06:05:41;;;;;;;8.15;6.75;;;4.80;95.30;;;;;;5070067;28;20426;-69
2023/04/26 06:08:08;;;;;;;10.35;7.47;;;4.90;95.20;;;;;;5067688;28;20917;-70
2023/04/26 06:10:36;;;;;;;10.32;7.60;;;4.90;95.30;;;;;;5066101;28;20440;-69
2023/04/26 06:13:03;;;;;;;9.32;7.95;;;5.00;94.80;;;;;;5077388;28;20504;-69
2023/04/26 06:15:31;;;;;;;10.68;7.30;;;5.00;94.60;;;;;;5085038;28;20412;-69
2023/04/26 06:17:58;;;;;;;10.40;8.80;;;5.10;94.30;;;;;;5064598;28;20463;-68
2023/04/26 06:20:26;;;;;;;10.55;7.70;;;5.20;94.40;;;;;;5065689;28;20427;-71
2023/04/26 06:22:53;;;;;;;10.68;7.60;;;5.20;94.40;;;;;;5067718;28;20561;-71
2023/04/26 06:25:20;;;;;;;9.50;6.90;;;5.30;94.20;;;;;;5070850;28;20534;-71
2023/04/26 06:27:47;;;;;;;10.50;7.78;;;5.40;94.10;;;;;;5072122;28;20418;-70
2023/04/26 06:30:14;;;;;;;10.63;6.57;;;5.50;93.70;;;;;;5083529;28;20415;-70
2023/04/26 06:32:43;;;;;;;10.07;7.00;;;5.70;92.60;;;;;;5066576;28;20518;-70
2023/04/26 06:35:09;;;;;;;9.60;7.50;;;5.80;92.60;;;;;;5061628;28;20904;-70
2023/04/26 06:40:09;;;;;;;13.20;8.50;;;6.10;92.60;;;;;;5019828;28;20438;-66
2023/04/26 06:42:36;;;;;;;12.10;7.70;;;6.30;91.40;;;;;;5024993;28;20498;-66
2023/04/26 06:45:03;;;;;;;8.85;7.95;;;6.40;91.40;;;;;;5037264;28;20426;-65
2023/04/26 06:47:30;;;;;;;10.70;7.30;;;6.50;90.80;;;;;;5034785;28;20623;-65
2023/04/26 06:49:58;;;;;;;9.85;7.43;;;6.70;90.60;;;;;;5050581;28;20433;-66
2023/04/26 06:52:25;;;;;;;9.00;7.45;;;6.90;90.10;;;;;;5047869;28;20900;-66
2023/04/26 06:54:51;;;;;;;9.43;6.72;;;7.00;88.90;;;;;;5041187;28;20779;-66
2023/04/26 06:57:19;;;;;;;10.27;7.63;;;7.20;86.90;;;;;;5043999;28;20440;-66
2023/04/26 06:59:46;;;;;;;8.88;7.40;;;7.30;84.50;;;;;;5039844;28;20758;-66
2023/04/26 07:02:12;;;;;;;9.68;7.38;;;7.40;82.50;;;;;;5036749;28;20431;-66
2023/04/26 07:04:39;;;;;;;10.85;8.30;;;7.50;82.80;;;;;;5046281;28;20898;-66
2023/04/26 07:07:07;;;;;;;8.75;6.95;;;7.70;81.10;;;;;;5027259;28;20562;-67
2023/04/26 07:09:34;;;;;;;7.57;5.78;;;7.80;80.20;;;;;;5027115;28;20904;-66
2023/04/26 07:12:01;;;;;;;8.60;6.78;;;7.90;78.90;;;;;;5036864;28;20429;-65
2023/04/26 07:14:27;;;;;;;9.20;6.50;;;7.90;78.80;;;;;;5043573;28;20421;-66
2023/04/26 07:16:54;;;;;;;9.33;6.30;;;8.00;77.90;;;;;;5037209;28;20532;-65
2023/04/26 07:19:22;;;;;;;8.40;6.30;;;8.10;77.90;;;;;;5036040;28;20796;-66
2023/04/26 07:21:48;;;;;;;9.77;6.45;;;8.30;78.00;;;;;;5026888;28;20988;-66
2023/04/26 07:24:16;;;;;;;9.02;7.07;;;8.40;75.50;;;;;;5036330;28;20428;-65
2023/04/26 07:26:43;;;;;;;10.00;7.45;;;8.50;75.70;;;;;;5031983;28;20440;-66
2023/04/26 07:29:10;;;;;;;12.18;9.55;;;8.60;76.30;;;;;;5046121;28;20564;-66
2023/04/26 07:31:37;;;;;;;11.10;7.20;;;8.80;76.20;;;;;;5036099;28;20908;-65
2023/04/26 07:34:04;;;;;;;14.27;8.52;;;8.90;74.20;;;;;;5035391;28;20509;-65
2023/04/26 07:36:31;;;;;;;9.80;7.20;;;9.10;74.40;;;;;;5030837;28;20551;-66
2023/04/26 07:38:58;;;;;;;8.05;6.65;;;9.20;72.70;;;;;;5036402;28;20429;-66
2023/04/26 07:41:26;;;;;;;7.55;6.65;;;9.30;72.00;;;;;;5034245;28;20429;-65
2023/04/26 07:43:52;;;;;;;8.77;6.83;;;9.40;69.20;;;;;;5028666;28;20485;-65
2023/04/26 07:46:19;;;;;;;7.40;6.60;;;9.50;69.30;;;;;;5035205;28;20916;-66
2023/04/26 07:48:46;;;;;;;8.80;6.25;;;9.60;68.70;;;;;;5040268;28;20451;-66
2023/04/26 07:51:13;;;;;;;7.30;5.70;;;9.60;67.60;;;;;;5040130;28;20445;-66
2023/04/26 07:53:40;;;;;;;7.78;4.80;;;9.50;65.60;;;;;;5024030;28;20449;-66
2023/04/26 07:56:08;;;;;;;8.48;5.25;;;9.50;61.40;;;;;;5029590;28;20469;-65
2023/04/26 07:58:37;;;;;;;6.75;4.40;;;9.40;63.80;;;;;;5031203;28;20439;-66
2023/04/26 08:01:05;;;;;;;7.45;4.22;;;9.40;62.20;;;;;;5030413;28;20437;-66
2023/04/26 08:03:31;;;;;;;6.30;4.10;;;9.40;60.90;;;;;;5036070;28;20856;-65
2023/04/26 08:05:59;;;;;;;6.68;4.43;;;9.30;61.60;;;;;;5038794;28;20836;-66
2023/04/26 08:08:26;;;;;;;8.30;3.63;;;9.40;61.60;;;;;;5024200;28;20898;-66
2023/04/26 08:10:54;;;;;;;7.63;3.70;;;9.50;58.60;;;;;;5029434;28;20437;-66
2023/04/26 08:13:21;;;;;;;6.70;4.57;;;9.60;59.10;;;;;;5029852;28;20885;-66
2023/04/26 08:15:49;;;;;;;6.30;4.20;;;9.70;58.70;;;;;;5040766;28;20506;-66
2023/04/26 08:18:16;;;;;;;8.15;4.55;;;9.80;59.90;;;;;;5038117;28;20802;-66
2023/04/26 08:20:42;;;;;;;8.48;4.65;;;9.80;59.70;;;;;;5036459;28;20446;-66
2023/04/26 08:23:09;;;;;;;6.10;4.20;;;9.80;58.70;;;;;;5037154;28;20501;-66
2023/04/26 08:25:36;;;;;;;7.97;5.00;;;9.80;59.30;;;;;;5025950;28;20785;-66
2023/04/26 08:28:03;;;;;;;7.07;4.40;;;9.90;59.80;;;;;;5042789;28;20417;-66
2023/04/26 08:30:30;;;;;;;7.63;4.82;;;10.10;60.50;;;;;;5031919;28;20412;-65
2023/04/26 08:32:58;;;;;;;4.90;4.10;;;10.20;58.50;;;;;;5025801;28;20524;-65
2023/04/26 08:35:25;;;;;;;7.65;4.57;;;10.40;58.10;;;;;;5023175;28;20432;-65
2023/04/26 08:37:51;;;;;;;7.30;4.50;;;10.50;57.10;;;;;;5030572;28;20498;-65
2023/04/26 08:40:23;;;;;;;8.75;5.25;;;10.60;56.30;;;;;;5035212;28;20435;-65
2023/04/26 08:42:52;;;;;;;7.37;4.50;;;10.60;54.90;;;;;;5032942;28;20592;-65
2023/04/26 08:45:19;;;;;;;7.47;4.15;;;10.50;54.60;;;;;;5029903;28;20425;-65
2023/04/26 08:47:49;;;;;;;6.05;4.35;;;10.50;55.20;;;;;;5040521;28;20504;-67
2023/04/26 08:50:20;;;;;;;6.40;4.75;;;10.60;55.30;;;;;;5034099;28;20421;-65
2023/04/26 08:52:48;;;;;;;8.43;4.88;;;10.50;55.40;;;;;;5032374;28;20437;-65
2023/04/26 08:55:16;;;;;;;8.05;4.85;;;10.50;56.50;;;;;;5036855;28;20939;-65
2023/04/26 08:57:45;;;;;;;6.78;4.55;;;10.70;57.40;;;;;;5043541;28;20417;-65
2023/04/26 09:00:14;;;;;;;8.10;4.50;;;10.90;52.50;;;;;;5029324;28;20927;-65
2023/04/26 09:02:42;;;;;;;7.30;4.70;;;10.90;52.80;;;;;;5038836;28;20413;-65
2023/04/26 09:05:10;;;;;;;5.65;3.65;;;11.10;54.40;;;;;;5042786;28;20424;-65
2023/04/26 09:07:41;;;;;;;6.72;4.32;;;11.20;51.60;;;;;;5023931;28;20442;-65
2023/04/26 09:10:09;;;;;;;5.43;4.00;;;11.40;51.60;;;;;;5035422;28;20579;-65
2023/04/26 09:12:36;;;;;;;8.50;4.15;;;11.50;48.20;;;;;;5022047;28;20890;-65
2023/04/26 09:15:06;;;;;;;6.15;4.10;;;11.20;48.60;;;;;;5039705;28;20478;-65
2023/04/26 09:17:35;;;;;;;5.53;4.35;;;10.90;48.80;;;;;;5035801;28;20433;-65
2023/04/26 09:20:17;;;;;;;5.47;4.00;;;10.60;51.00;;;;;;5024072;28;20507;-66
2023/04/26 09:22:45;;;;;;;6.35;4.50;;;10.60;52.30;;;;;;5043665;28;20431;-65
2023/04/26 09:25:13;;;;;;;6.00;4.55;;;10.60;50.50;;;;;;5029758;28;20440;-65
2023/04/26 09:27:42;;;;;;;7.53;4.60;;;10.60;51.50;;;;;;5036307;28;20443;-66
2023/04/26 09:30:11;;;;;;;6.28;4.10;;;10.60;50.90;;;;;;5036353;28;20460;-65
2023/04/26 09:32:45;;;;;;;5.07;4.10;;;10.70;51.30;;;;;;5026975;28;20454;-66
2023/04/26 09:35:29;;;;;;;6.07;4.13;;;10.80;51.60;;;;;;5035683;28;20520;-65
2023/04/26 09:38:00;;;;;;;6.43;4.40;;;10.90;50.50;;;;;;5043782;28;20516;-66
2023/04/26 09:40:28;;;;;;;7.20;4.18;;;10.90;51.00;;;;;;5045384;28;20457;-68
2023/04/26 09:43:00;;;;;;;4.63;3.80;;;11.00;51.60;;;;;;5030788;28;20505;-68
2023/04/26 09:45:27;;;;;;;5.78;3.80;;;11.10;50.40;;;;;;5042421;28;20417;-68
2023/04/26 09:47:55;;;;;;;7.63;4.10;;;11.30;49.80;;;;;;5045080;28;20776;-68
2023/04/26 09:50:29;;;;;;;4.87;3.67;;;11.40;47.20;;;;;;5045708;28;20470;-68
2023/04/26 09:52:57;;;;;;;6.28;3.60;;;11.40;46.40;;;;;;5045274;28;20455;-68
2023/04/26 09:55:29;;;;;;;7.28;4.00;;;11.30;45.90;;;;;;5036920;28;20955;-68
2023/04/26 09:57:57;;;;;;;5.40;3.55;;;11.10;45.90;;;;;;5037032;28;20457;-68
2023/04/26 10:00:25;;;;;;;4.80;3.40;;;11.00;45.80;;;;;;5031209;28;20416;-68
2023/04/26 10:02:54;;;;;;;6.22;4.00;;;11.00;46.60;;;;;;5043769;28;20574;-68
2023/04/26 10:05:21;;;;;;;7.65;4.65;;;11.10;46.90;;;;;;5032903;28;20480;-68
2023/04/26 10:07:50;;;;;;;5.72;4.70;;;11.10;47.80;;;;;;5027921;28;20421;-67
2023/04/26 10:10:20;;;;;;;6.60;4.78;;;11.00;49.10;;;;;;5022682;28;20491;-67
2023/04/26 10:12:47;;;;;;;5.70;4.50;;;11.00;49.20;;;;;;5037971;28;20508;-67
2023/04/26 10:15:15;;;;;;;8.85;5.10;;;11.00;47.90;;;;;;5039332;28;20430;-67
2023/04/26 10:17:42;;;;;;;6.75;4.30;;;10.90;49.20;;;;;;5044606;28;20488;-68
2023/04/26 10:20:12;;;;;;;8.10;4.67;;;10.90;48.70;;;;;;5032278;28;20422;-67
2023/04/26 10:22:44;;;;;;;5.63;4.30;;;10.90;48.10;;;;;;5047153;28;20413;-67
2023/04/26 10:25:11;;;;;;;5.32;4.60;;;11.00;48.70;;;;;;5043946;28;20936;-68
2023/04/26 10:27:51;;;;;;;5.70;4.50;;;11.10;48.70;;;;;;5038507;28;20439;-68
2023/04/26 10:30:22;;;;;;;7.00;4.40;;;11.10;47.70;;;;;;5044128;28;21135;-65
2023/04/26 10:33:13;;;;;;;6.45;4.80;;;11.20;47.30;;;;;;5046674;28;20421;-67
2023/04/26 10:36:04;;;;;;;5.70;4.20;;;11.20;47.50;;;;;;5032870;28;20414;-66
2023/04/26 10:38:31;;;;;;;7.30;4.37;;;11.30;48.30;;;;;;5032124;28;20431;-68
2023/04/26 10:41:31;;;;;;;6.95;4.65;;;11.40;46.50;;;;;;5041736;28;20468;-68
2023/04/26 10:44:01;;;;;;;6.68;4.45;;;11.50;46.60;;;;;;5025284;28;20423;-66
2023/04/26 10:46:36;;;;;;;4.43;4.03;;;11.70;46.80;;;;;;5038507;28;20418;-67
2023/04/26 10:49:14;;;;;;;6.10;4.30;;;12.00;46.40;;;;;;5039637;28;20822;-66
2023/04/26 10:51:41;;;;;;;7.07;4.25;;;12.10;45.40;;;;;;5038227;28;20862;-68
2023/04/26 10:54:08;;;;;;;6.35;4.43;;;12.30;45.10;;;;;;5033691;28;20428;-66
2023/04/26 10:56:54;;;;;;;5.95;4.28;;;12.40;44.60;;;;;;5034347;28;20438;-69
2023/04/26 10:59:22;;;;;;;5.47;4.18;;;12.60;43.50;;;;;;5029866;28;20439;-67
2023/04/26 11:01:49;;;;;;;7.03;4.05;;;12.70;42.70;;;;;;5036571;28;20431;-69
2023/04/26 11:04:16;;;;;;;5.35;3.92;;;12.60;41.70;;;;;;5037384;28;20504;-69
2023/04/26 11:06:50;;;;;;;7.50;4.22;;;12.60;42.40;;;;;;5028560;28;20431;-69
2023/04/26 11:09:36;;;;;;;5.78;4.05;;;12.70;41.60;;;;;;5027771;28;20441;-68
2023/04/26 11:12:11;;;;;;;5.15;4.25;;;12.70;41.10;;;;;;5033704;28;20438;-66
2023/04/26 11:14:41;;;;;;;5.35;4.40;;;12.60;41.90;;;;;;5040505;28;20468;-66
2023/04/26 11:17:08;;;;;;;5.63;4.03;;;12.70;42.20;;;;;;5033170;28;20445;-66
2023/04/26 11:19:36;;;;;;;6.35;3.85;;;12.80;41.10;;;;;;5036408;28;20437;-66
2023/04/26 11:22:06;;;;;;;5.63;3.90;;;13.00;41.00;;;;;;5037539;28;20445;-66
2023/04/26 11:24:35;;;;;;;5.45;4.10;;;13.30;40.80;;;;;;5031730;28;20474;-66
2023/04/26 11:27:07;;;;;;;7.05;4.05;;;13.40;40.30;;;;;;5035814;28;21013;-68
2023/04/26 11:29:34;;;;;;;5.85;3.70;;;13.60;39.10;;;;;;5028555;28;20445;-69
2023/04/26 11:32:02;;;;;;;5.43;4.10;;;13.80;39.50;;;;;;5041875;28;20416;-66
2023/04/26 11:34:32;;;;;;;5.35;4.10;;;14.00;38.30;;;;;;5031245;28;20445;-70
2023/04/26 11:36:59;;;;;;;5.57;3.80;;;14.20;37.60;;;;;;5024001;28;20426;-71
2023/04/26 11:39:26;;;;;;;5.88;3.30;;;14.50;36.60;;;;;;5025370;28;20513;-70
2023/04/26 11:41:56;;;;;;;4.13;3.40;;;14.60;34.90;;;;;;5025499;28;20442;-71
2023/04/26 11:44:23;;;;;;;6.00;3.63;;;14.50;35.70;;;;;;5029484;28;20436;-69
2023/04/26 11:46:51;;;;;;;5.00;3.80;;;14.60;36.00;;;;;;5035525;28;20430;-70
2023/04/26 11:49:20;;;;;;;5.40;3.30;;;14.90;36.60;;;;;;5026294;28;20882;-70
2023/04/26 11:51:48;;;;;;;4.07;3.30;;;15.30;35.00;;;;;;5041942;28;20457;-71
2023/04/26 11:54:28;;;;;;;5.50;2.92;;;15.70;34.30;;;;;;5041381;28;20429;-71
2023/04/26 11:56:55;;;;;;;5.68;3.35;;;16.00;33.10;;;;;;5034263;28;20513;-71
2023/04/26 11:59:25;;;;;;;7.13;3.50;;;16.30;32.60;;;;;;5031187;28;20724;-71
2023/04/26 12:01:52;;;;;;;5.72;3.30;;;16.40;32.70;;;;;;5042321;28;20504;-71
2023/04/26 12:04:26;;;;;;;5.80;3.05;;;16.80;31.80;;;;;;5038746;28;20927;-72
2023/04/26 12:06:53;;;;;;;5.57;3.00;;;17.00;30.90;;;;;;5029541;28;20438;-71
2023/04/26 12:09:22;;;;;;;6.03;3.00;;;16.90;30.60;;;;;;5022993;28;20450;-71
2023/04/26 12:11:57;;;;;;;7.10;3.88;;;16.80;31.80;;;;;;5041788;28;20421;-71
2023/04/26 12:14:30;;;;;;;5.53;3.70;;;17.00;31.90;;;;;;5037810;28;20517;-71
2023/04/26 12:16:59;;;;;;;5.15;3.38;;;17.10;33.10;;;;;;5042102;28;20437;-71
2023/04/26 12:19:27;;;;;;;5.10;3.70;;;17.10;33.60;;;;;;5029786;28;20435;-71
2023/04/26 12:21:54;;;;;;;4.90;3.55;;;17.30;32.30;;;;;;5042873;28;20432;-71
2023/04/26 12:24:23;;;;;;;3.70;3.05;;;17.10;31.80;;;;;;5035016;28;20421;-71
2023/04/26 12:26:49;;;;;;;4.82;3.38;;;17.10;32.30;;;;;;5025562;28;20423;-71
2023/04/26 12:29:16;;;;;;;6.18;3.30;;;17.10;32.60;;;;;;5024620;28;20521;-71
2023/04/26 12:31:43;;;;;;;5.60;3.60;;;17.10;33.00;;;;;;5032645;28;20531;-71
2023/04/26 12:34:10;;;;;;;4.10;3.70;;;17.00;31.80;;;;;;5034269;28;20751;-71
2023/04/26 12:36:39;;;;;;;5.88;3.75;;;17.10;31.80;;;;;;5024767;28;20419;-71
2023/04/26 12:39:06;;;;;;;4.22;3.50;;;16.90;31.80;;;;;;5028275;28;20431;-71
2023/04/26 12:41:33;;;;;;;5.80;3.55;;;17.10;32.40;;;;;;5036097;28;20904;-71
2023/04/26 12:44:00;;;;;;;6.10;3.90;;;17.40;32.50;;;;;;5022750;28;20458;-71
2023/04/26 12:46:27;;;;;;;5.60;3.50;;;17.60;32.00;;;;;;5035884;28;20423;-71
2023/04/26 12:48:54;;;;;;;7.75;4.30;;;17.80;32.00;;;;;;5023829;28;20422;-71
2023/04/26 12:51:21;;;;;;;7.05;3.90;;;17.90;31.70;;;;;;5024296;28;20434;-71
2023/04/26 12:53:49;;;;;;;6.07;3.92;;;17.70;31.60;;;;;;5031057;28;20449;-71
2023/04/26 12:56:16;;;;;;;5.90;3.90;;;17.80;31.80;;;;;;5027517;28;20519;-71
2023/04/26 12:58:43;;;;;;;5.68;4.07;;;17.80;31.30;;;;;;5028266;28;20430;-71
2023/04/26 13:01:11;;;;;;;4.88;4.00;;;17.80;31.20;;;;;;5025423;28;20448;-71